createdAt,value
2022-08-16T00:01:33.872Z,20.80
2022-08-16T00:04:05.074Z,20.80
2022-08-16T00:06:34.775Z,20.70
2022-08-16T00:09:24.186Z,20.70
2022-08-16T00:11:55.490Z,20.70
2022-08-16T00:14:43.368Z,20.70
2022-08-16T00:17:16.387Z,20.60
2022-08-16T00:19:49.089Z,20.60
2022-08-16T00:22:24.704Z,20.60
2022-08-16T00:24:55.117Z,20.50
2022-08-16T00:27:24.750Z,20.50
2022-08-16T00:30:08.325Z,20.50
2022-08-16T00:33:01.082Z,20.50
2022-08-16T00:35:34.907Z,20.50
2022-08-16T00:38:40.058Z,20.50
2022-08-16T00:40:56.749Z,20.50
2022-08-16T00:43:42.480Z,20.50
2022-08-16T00:46:33.313Z,20.50
2022-08-16T00:49:17.791Z,20.40
2022-08-16T00:51:55.242Z,20.40
2022-08-16T00:54:27.442Z,20.40
2022-08-16T00:56:59.750Z,20.40
2022-08-16T00:59:54.855Z,20.40
2022-08-16T01:02:30.365Z,20.30
2022-08-16T01:05:09.308Z,20.30
2022-08-16T01:07:50.535Z,20.40
2022-08-16T01:10:20.888Z,20.30
2022-08-16T01:12:49.914Z,20.30
2022-08-16T01:15:19.793Z,20.30
2022-08-16T01:17:56.071Z,20.30
2022-08-16T01:20:30.411Z,20.30
2022-08-16T01:23:08.507Z,20.40
2022-08-16T01:25:45.022Z,20.40
2022-08-16T01:28:30.866Z,20.40
2022-08-16T01:31:01.477Z,20.40
2022-08-16T01:33:33.387Z,20.50
2022-08-16T01:36:12.051Z,20.50
2022-08-16T01:38:51.220Z,20.50
2022-08-16T01:41:31.484Z,20.50
2022-08-16T01:44:04.264Z,20.50
2022-08-16T01:46:53.562Z,20.50
2022-08-16T01:49:42.901Z,20.50
2022-08-16T01:52:29.586Z,20.50
2022-08-16T01:55:20.134Z,20.50
2022-08-16T01:57:56.396Z,20.50
2022-08-16T02:00:29.163Z,20.50
2022-08-16T02:03:01.340Z,20.40
2022-08-16T02:05:31.515Z,20.40
2022-08-16T02:08:04.864Z,20.40
2022-08-16T02:10:34.464Z,20.30
2022-08-16T02:13:07.677Z,20.30
2022-08-16T02:15:43.773Z,20.20
2022-08-16T02:18:18.776Z,20.20
2022-08-16T02:20:53.488Z,20.20
2022-08-16T02:23:23.881Z,20.10
2022-08-16T02:25:54.607Z,20.10
2022-08-16T02:28:26.943Z,20.10
2022-08-16T02:30:57.557Z,20.00
2022-08-16T02:33:42.805Z,20.00
2022-08-16T02:36:42.284Z,20.00
2022-08-16T02:39:22.961Z,20.00
2022-08-16T02:41:54.456Z,20.00
2022-08-16T02:44:28.400Z,19.90
2022-08-16T02:46:58.739Z,19.90
2022-08-16T02:49:58.243Z,19.90
2022-08-16T02:52:38.586Z,19.90
2022-08-16T02:55:10.999Z,19.90
2022-08-16T02:57:42.341Z,19.90
2022-08-16T03:00:34.395Z,19.90
2022-08-16T03:03:10.562Z,19.90
2022-08-16T03:05:40.085Z,19.90
2022-08-16T03:08:50.534Z,20.00
2022-08-16T03:11:01.171Z,20.00
2022-08-16T03:13:31.042Z,20.00
2022-08-16T03:16:33.086Z,20.00
2022-08-16T03:19:01.765Z,20.00
2022-08-16T03:21:38.073Z,20.00
2022-08-16T03:24:28.377Z,20.00
2022-08-16T03:27:01.773Z,20.00
2022-08-16T03:29:34.809Z,20.00
2022-08-16T03:32:07.913Z,20.00
2022-08-16T03:34:37.026Z,19.90
2022-08-16T03:37:06.420Z,19.90
2022-08-16T03:39:43.031Z,19.90
2022-08-16T03:42:20.519Z,19.90
2022-08-16T03:44:52.344Z,19.90
2022-08-16T03:47:35.034Z,19.90
2022-08-16T03:50:25.326Z,19.90
2022-08-16T03:53:01.301Z,19.90
2022-08-16T03:55:45.070Z,19.90
2022-08-16T03:58:14.418Z,19.90
2022-08-16T04:00:43.854Z,19.90
2022-08-16T04:03:19.412Z,19.90
2022-08-16T04:06:09.684Z,19.90
2022-08-16T04:08:39.665Z,20.00
2022-08-16T04:11:27.657Z,20.00
2022-08-16T04:14:32.676Z,20.00
2022-08-16T04:16:56.609Z,20.00
2022-08-16T04:19:36.300Z,20.10
2022-08-16T04:22:27.512Z,20.10
2022-08-16T04:25:01.777Z,20.20
2022-08-16T04:27:54.303Z,20.30
2022-08-16T04:30:32.469Z,20.30
2022-08-16T04:33:05.895Z,20.40
2022-08-16T04:35:39.687Z,20.40
2022-08-16T04:38:11.075Z,20.50
2022-08-16T04:40:54.391Z,20.60
2022-08-16T04:43:23.949Z,20.60
2022-08-16T04:46:00.508Z,20.70
2022-08-16T04:48:34.565Z,20.70
2022-08-16T04:51:12.711Z,20.80
2022-08-16T04:53:50.176Z,20.80
2022-08-16T04:56:22.032Z,20.90
2022-08-16T04:58:57.718Z,20.90
2022-08-16T05:01:47.734Z,21.00
2022-08-16T05:04:19.380Z,21.00
2022-08-16T05:06:52.865Z,21.10
2022-08-16T05:09:45.066Z,21.10
2022-08-16T05:12:22.093Z,21.20
2022-08-16T05:15:02.659Z,21.30
2022-08-16T05:17:37.887Z,21.30
2022-08-16T05:20:35.675Z,21.40
2022-08-16T05:23:04.886Z,21.40
2022-08-16T05:25:47.839Z,21.50
2022-08-16T05:28:20.999Z,21.60
2022-08-16T05:30:56.168Z,21.70
2022-08-16T05:33:28.442Z,21.70
2022-08-16T05:36:16.212Z,21.80
2022-08-16T05:38:54.925Z,21.90
2022-08-16T05:41:23.934Z,22.00
2022-08-16T05:43:59.239Z,22.10
2022-08-16T05:46:43.829Z,22.20
2022-08-16T05:49:22.165Z,22.30
2022-08-16T05:51:55.596Z,22.40
2022-08-16T05:54:28.122Z,22.50
2022-08-16T05:57:01.769Z,22.60
2022-08-16T05:59:33.351Z,22.70
2022-08-16T06:02:02.881Z,22.80
2022-08-16T06:04:37.888Z,22.90
2022-08-16T06:07:25.116Z,23.00
2022-08-16T06:10:32.027Z,23.10
2022-08-16T06:13:06.154Z,23.20
2022-08-16T06:15:37.021Z,23.30
2022-08-16T06:18:10.824Z,23.30
2022-08-16T06:20:51.677Z,23.50
2022-08-16T06:23:43.808Z,23.60
2022-08-16T06:26:17.563Z,23.70
2022-08-16T06:28:48.761Z,23.80
2022-08-16T06:31:25.026Z,23.90
2022-08-16T06:33:56.603Z,24.00
2022-08-16T06:36:28.207Z,24.10
2022-08-16T06:39:11.874Z,24.20
2022-08-16T06:42:11.603Z,24.30
2022-08-16T06:45:08.653Z,24.40
2022-08-16T06:47:54.125Z,24.50
2022-08-16T06:50:29.890Z,24.60
2022-08-16T06:53:19.829Z,24.70
2022-08-16T06:56:14.784Z,24.80
2022-08-16T06:59:02.077Z,24.90
2022-08-16T07:01:46.158Z,25.00
2022-08-16T07:04:32.396Z,25.10
2022-08-16T07:07:09.722Z,25.20
2022-08-16T07:09:40.873Z,25.30
2022-08-16T07:12:11.203Z,25.40
2022-08-16T07:14:49.905Z,25.60
2022-08-16T07:17:21.903Z,25.60
2022-08-16T07:20:02.707Z,25.70
2022-08-16T07:22:52.801Z,25.80
2022-08-16T07:25:40.742Z,25.90
2022-08-16T07:28:20.600Z,26.00
2022-08-16T07:30:51.744Z,26.10
2022-08-16T07:33:52.296Z,26.20
2022-08-16T07:36:22.125Z,26.30
2022-08-16T07:38:53.009Z,26.40
2022-08-16T07:41:23.376Z,26.50
2022-08-16T07:44:00.105Z,26.60
2022-08-16T07:46:37.511Z,26.70
2022-08-16T07:49:13.318Z,26.80
2022-08-16T07:51:43.585Z,26.90
2022-08-16T07:54:21.062Z,27.00
2022-08-16T07:56:56.405Z,27.10
2022-08-16T07:59:27.193Z,27.20
2022-08-16T08:02:20.491Z,27.30
2022-08-16T08:04:56.352Z,27.40
2022-08-16T08:07:29.355Z,27.60
2022-08-16T08:10:29.471Z,27.60
2022-08-16T08:13:01.439Z,27.80
2022-08-16T08:15:34.441Z,27.80
2022-08-16T08:18:30.278Z,27.90
2022-08-16T08:20:59.203Z,28.00
2022-08-16T08:23:31.741Z,28.20
2022-08-16T08:26:01.135Z,28.20
2022-08-16T08:28:32.256Z,28.30
2022-08-16T08:31:05.840Z,28.50
2022-08-16T08:33:58.705Z,28.60
2022-08-16T08:36:34.959Z,28.70
2022-08-16T08:39:28.897Z,28.80
2022-08-16T08:41:57.970Z,28.90
2022-08-16T08:44:41.970Z,29.00
2022-08-16T08:47:16.618Z,29.10
2022-08-16T08:49:55.239Z,29.20
2022-08-16T08:52:34.775Z,29.40
2022-08-16T08:55:12.934Z,29.50
2022-08-16T08:58:00.276Z,29.70
2022-08-16T09:00:51.242Z,29.80
2022-08-16T09:03:23.204Z,30.00
2022-08-16T09:05:54.344Z,30.10
2022-08-16T09:08:26.516Z,30.20
2022-08-16T09:11:03.462Z,30.40
2022-08-16T09:13:39.078Z,30.60
2022-08-16T09:17:02.876Z,30.80
2022-08-16T09:21:44.460Z,31.00
2022-08-16T09:24:51.783Z,31.10
2022-08-16T09:27:14.732Z,31.20
2022-08-16T09:29:46.304Z,31.40
2022-08-16T09:32:28.619Z,31.40
2022-08-16T09:34:59.616Z,31.60
2022-08-16T09:37:36.369Z,31.80
2022-08-16T09:40:32.541Z,31.90
2022-08-16T09:42:59.752Z,32.00
2022-08-16T09:45:30.374Z,32.10
2022-08-16T09:48:00.264Z,32.20
2022-08-16T09:50:37.168Z,32.40
2022-08-16T09:53:14.719Z,32.40
2022-08-16T09:55:49.388Z,32.50
2022-08-16T09:58:41.956Z,32.50
2022-08-16T10:01:11.544Z,32.70
2022-08-16T10:04:02.014Z,32.70
2022-08-16T10:06:33.802Z,32.70
2022-08-16T10:09:23.430Z,32.80
2022-08-16T10:12:19.454Z,32.90
2022-08-16T10:15:09.320Z,33.00
2022-08-16T10:17:59.492Z,33.10
2022-08-16T10:20:50.052Z,33.20
2022-08-16T10:23:19.475Z,33.30
2022-08-16T10:27:18.564Z,33.40
2022-08-16T10:28:41.956Z,33.50
2022-08-16T10:31:16.868Z,33.60
2022-08-16T10:34:02.753Z,33.70
2022-08-16T10:36:37.836Z,33.80
2022-08-16T10:39:09.026Z,33.80
2022-08-16T10:41:39.570Z,33.90
2022-08-16T10:44:08.670Z,34.00
2022-08-16T10:46:41.744Z,34.00
2022-08-16T10:49:12.772Z,34.10
2022-08-16T10:52:02.410Z,34.10
2022-08-16T10:55:40.252Z,34.20
2022-08-16T10:57:43.916Z,34.30
2022-08-16T11:00:20.776Z,34.60
2022-08-16T11:02:58.055Z,34.70
2022-08-16T11:05:59.120Z,34.90
2022-08-16T11:08:31.210Z,35.20
2022-08-16T11:11:23.283Z,35.60
2022-08-16T11:13:58.921Z,36.10
2022-08-16T11:17:10.443Z,36.50
2022-08-16T11:20:00.728Z,36.90
2022-08-16T11:22:48.575Z,37.20
2022-08-16T11:28:36.144Z,37.60
2022-08-16T11:31:02.950Z,37.80
2022-08-16T11:36:22.301Z,38.10
2022-08-16T11:39:12.396Z,38.20
2022-08-16T11:41:43.675Z,38.30
2022-08-16T11:44:13.582Z,38.30
2022-08-16T11:46:50.773Z,38.30
2022-08-16T11:49:22.834Z,38.00
2022-08-16T11:51:51.758Z,37.90
2022-08-16T11:54:23.478Z,37.80
2022-08-16T11:57:02.491Z,37.80
2022-08-16T11:59:32.777Z,37.80
2022-08-16T12:02:30.677Z,37.80
2022-08-16T12:05:14.428Z,37.80
2022-08-16T12:07:45.089Z,37.80
2022-08-16T12:10:18.129Z,37.80
2022-08-16T12:12:48.119Z,37.80
2022-08-16T12:15:21.709Z,37.70
2022-08-16T12:17:52.688Z,37.60
2022-08-16T12:20:29.726Z,37.60
2022-08-16T12:22:59.424Z,37.60
2022-08-16T12:25:32.296Z,37.60
2022-08-16T12:28:36.943Z,37.70
2022-08-16T12:31:09.265Z,37.80
2022-08-16T12:33:44.821Z,37.90
2022-08-16T12:36:14.647Z,38.00
2022-08-16T12:38:48.344Z,38.10
2022-08-16T12:41:24.464Z,38.30
2022-08-16T12:43:57.021Z,38.30
2022-08-16T12:46:30.904Z,38.40
2022-08-16T12:49:01.926Z,38.40
2022-08-16T12:51:58.120Z,38.50
2022-08-16T12:54:23.107Z,38.50
2022-08-16T12:56:52.144Z,38.70
2022-08-16T12:59:22.094Z,38.80
2022-08-16T13:01:55.365Z,39.00
2022-08-16T13:04:31.425Z,39.20
2022-08-16T13:07:27.327Z,39.40
2022-08-16T13:09:58.533Z,39.50
2022-08-16T13:12:28.731Z,39.60
2022-08-16T13:14:58.771Z,39.70
2022-08-16T13:17:29.944Z,39.70
2022-08-16T13:20:21.419Z,39.80
2022-08-16T13:22:53.183Z,39.90
2022-08-16T13:25:42.325Z,39.80
2022-08-16T13:28:17.058Z,39.70
2022-08-16T13:30:50.636Z,39.50
2022-08-16T13:33:29.725Z,39.10
2022-08-16T13:36:02.088Z,38.80
2022-08-16T13:38:37.468Z,38.50
2022-08-16T13:41:08.832Z,38.20
2022-08-16T13:43:39.488Z,37.90
2022-08-16T13:46:09.400Z,37.50
2022-08-16T13:48:44.115Z,37.10
2022-08-16T13:51:20.874Z,36.60
2022-08-16T13:53:59.877Z,36.30
2022-08-16T13:56:37.770Z,35.90
2022-08-16T13:59:19.610Z,35.70
2022-08-16T14:01:55.987Z,35.50
2022-08-16T14:04:27.597Z,35.30
2022-08-16T14:06:59.298Z,35.10
2022-08-16T14:09:29.149Z,35.00
2022-08-16T14:12:22.822Z,34.80
2022-08-16T14:14:56.383Z,34.60
2022-08-16T14:17:27.295Z,34.50
2022-08-16T14:19:59.669Z,34.40
2022-08-16T14:22:39.949Z,34.20
2022-08-16T14:25:18.589Z,34.10
2022-08-16T14:27:48.406Z,34.00
2022-08-16T14:30:22.992Z,34.00
2022-08-16T14:32:52.830Z,34.00
2022-08-16T14:35:36.285Z,34.00
2022-08-16T14:38:08.052Z,34.00
2022-08-16T14:40:37.174Z,34.00
2022-08-16T14:43:08.531Z,33.90
2022-08-16T14:45:38.302Z,33.90
2022-08-16T14:48:08.504Z,33.80
2022-08-16T14:50:37.390Z,33.70
2022-08-16T14:53:10.736Z,33.70
2022-08-16T14:55:41.329Z,33.60
2022-08-16T14:58:19.219Z,33.50
2022-08-16T15:00:50.650Z,33.50
2022-08-16T15:03:23.502Z,33.40
2022-08-16T15:05:54.043Z,33.40
2022-08-16T15:08:45.832Z,33.40
2022-08-16T15:11:15.169Z,33.40
2022-08-16T15:13:46.788Z,33.30
2022-08-16T15:16:16.473Z,33.30
2022-08-16T15:18:46.629Z,33.20
2022-08-16T15:21:15.930Z,33.20
2022-08-16T15:23:46.480Z,33.10
2022-08-16T15:26:22.264Z,33.10
2022-08-16T15:29:04.311Z,33.10
2022-08-16T15:31:37.712Z,32.90
2022-08-16T15:34:06.601Z,33.00
2022-08-16T15:36:42.495Z,32.90
2022-08-16T15:39:30.359Z,32.90
2022-08-16T15:42:06.896Z,32.80
2022-08-16T15:44:51.850Z,32.60
2022-08-16T15:47:26.362Z,32.60
2022-08-16T15:49:56.415Z,32.50
2022-08-16T15:52:29.325Z,32.40
2022-08-16T15:55:07.455Z,32.40
2022-08-16T15:57:51.460Z,32.30
2022-08-16T16:00:22.504Z,32.20
2022-08-16T16:03:03.117Z,32.10
2022-08-16T16:05:32.246Z,32.00
2022-08-16T16:08:11.059Z,31.90
2022-08-16T16:10:54.218Z,31.80
2022-08-16T16:13:24.901Z,31.70
2022-08-16T16:15:55.963Z,31.60
2022-08-16T16:18:26.209Z,31.50
2022-08-16T16:21:13.908Z,31.40
2022-08-16T16:23:54.787Z,31.20
2022-08-16T16:26:33.341Z,31.10
2022-08-16T16:29:07.599Z,31.00
2022-08-16T16:31:59.083Z,30.90
2022-08-16T16:34:32.397Z,30.80
2022-08-16T16:37:22.890Z,30.70
2022-08-16T16:39:52.114Z,30.50
2022-08-16T16:42:29.291Z,30.40
2022-08-16T16:45:02.086Z,30.30
2022-08-16T16:47:40.668Z,30.20
2022-08-16T16:50:13.019Z,30.10
2022-08-16T16:52:44.416Z,30.00
2022-08-16T16:55:14.920Z,29.90
2022-08-16T16:57:59.010Z,29.80
2022-08-16T17:00:37.627Z,29.60
2022-08-16T17:03:16.858Z,29.50
2022-08-16T17:05:57.403Z,29.40
2022-08-16T17:08:57.096Z,29.30
2022-08-16T17:11:26.408Z,29.20
2022-08-16T17:14:00.745Z,29.00
2022-08-16T17:16:32.888Z,28.90
2022-08-16T17:19:17.558Z,28.80
2022-08-16T17:21:48.676Z,28.70
2022-08-16T17:24:19.834Z,28.60
2022-08-16T17:26:55.953Z,28.40
2022-08-16T17:29:30.694Z,28.30
2022-08-16T17:32:33.177Z,28.20
2022-08-16T17:34:51.035Z,28.10
2022-08-16T17:37:22.231Z,28.00
2022-08-16T17:40:25.854Z,28.00
2022-08-16T17:43:04.287Z,27.90
2022-08-16T17:45:34.738Z,27.80
2022-08-16T17:48:03.854Z,27.80
2022-08-16T17:50:32.933Z,27.70
2022-08-16T17:53:02.742Z,27.60
2022-08-16T17:55:34.457Z,27.60
2022-08-16T17:58:20.160Z,27.50
2022-08-16T18:00:56.082Z,27.50
2022-08-16T18:04:07.246Z,27.40
2022-08-16T18:06:17.953Z,27.30
2022-08-16T18:09:05.999Z,27.30
2022-08-16T18:11:40.736Z,27.20
2022-08-16T18:14:11.461Z,27.10
2022-08-16T18:16:42.772Z,27.10
2022-08-16T18:19:12.182Z,27.00
2022-08-16T18:21:59.732Z,27.00
2022-08-16T18:24:48.002Z,26.90
2022-08-16T18:27:26.562Z,26.80
2022-08-16T18:29:56.037Z,26.70
2022-08-16T18:32:27.725Z,26.60
2022-08-16T18:34:57.030Z,26.60
2022-08-16T18:37:26.156Z,26.50
2022-08-16T18:39:55.230Z,26.40
2022-08-16T18:42:27.187Z,26.40
2022-08-16T18:44:56.168Z,26.30
2022-08-16T18:47:26.668Z,26.20
2022-08-16T18:49:55.745Z,26.10
2022-08-16T18:52:26.040Z,26.00
2022-08-16T18:55:01.954Z,26.00
2022-08-16T18:57:43.305Z,25.90
2022-08-16T19:00:13.860Z,25.90
2022-08-16T19:02:58.787Z,25.80
2022-08-16T19:05:31.060Z,25.70
2022-08-16T19:08:01.315Z,25.60
2022-08-16T19:10:31.072Z,25.60
2022-08-16T19:13:01.278Z,25.50
2022-08-16T19:15:31.022Z,25.50
2022-08-16T19:18:04.741Z,25.40
2022-08-16T19:20:34.067Z,25.40
2022-08-16T19:23:05.404Z,25.30
2022-08-16T19:25:46.631Z,25.20
2022-08-16T19:28:50.663Z,25.20
2022-08-16T19:31:17.549Z,25.20
2022-08-16T19:33:54.264Z,25.20
2022-08-16T19:36:31.683Z,25.20
2022-08-16T19:39:20.108Z,25.20
2022-08-16T19:41:53.432Z,25.20
2022-08-16T19:44:24.064Z,25.20
2022-08-16T19:46:53.655Z,25.10
2022-08-16T19:49:24.085Z,25.10
2022-08-16T19:51:53.185Z,25.10
2022-08-16T19:54:22.019Z,25.10
2022-08-16T19:56:52.190Z,25.10
2022-08-16T19:59:44.614Z,25.00
2022-08-16T20:02:35.916Z,25.00
2022-08-16T20:05:10.299Z,24.90
2022-08-16T20:07:39.257Z,24.80
2022-08-16T20:10:10.494Z,24.70
2022-08-16T20:12:39.814Z,24.70
2022-08-16T20:15:15.994Z,24.60
2022-08-16T20:17:46.029Z,24.50
2022-08-16T20:20:19.228Z,24.40
2022-08-16T20:22:53.982Z,24.40
2022-08-16T20:25:28.147Z,24.30
2022-08-16T20:27:58.041Z,24.30
2022-08-16T20:30:27.465Z,24.20
2022-08-16T20:32:56.802Z,24.20
2022-08-16T20:35:29.622Z,24.20
2022-08-16T20:38:00.153Z,24.10
2022-08-16T20:40:35.135Z,24.10
2022-08-16T20:43:08.142Z,24.00
2022-08-16T20:45:37.737Z,24.00
2022-08-16T20:48:07.515Z,23.90
2022-08-16T20:50:38.501Z,23.90
2022-08-16T20:53:08.046Z,23.80
2022-08-16T20:55:40.243Z,23.80
2022-08-16T20:58:09.350Z,23.70
2022-08-16T21:00:38.485Z,23.70
2022-08-16T21:03:08.864Z,23.70
2022-08-16T21:05:39.899Z,23.60
2022-08-16T21:08:50.733Z,23.60
2022-08-16T21:10:59.474Z,23.50
2022-08-16T21:13:31.014Z,23.50
2022-08-16T21:16:00.958Z,23.50
2022-08-16T21:18:30.324Z,23.50
2022-08-16T21:21:00.926Z,23.50
2022-08-16T21:23:30.055Z,23.50
2022-08-16T21:25:59.803Z,23.50
2022-08-16T21:28:38.896Z,23.50
2022-08-16T21:31:30.472Z,23.50
2022-08-16T21:33:59.418Z,23.50
2022-08-16T21:36:35.624Z,23.50
2022-08-16T21:39:07.026Z,23.50
2022-08-16T21:41:38.560Z,23.50
2022-08-16T21:44:32.360Z,23.40
2022-08-16T21:47:08.107Z,23.40
2022-08-16T21:49:38.175Z,23.40
2022-08-16T21:52:26.119Z,23.40
2022-08-16T21:54:57.216Z,23.30
2022-08-16T21:57:26.404Z,23.30
2022-08-16T22:00:07.664Z,23.30
2022-08-16T22:02:39.282Z,23.30
2022-08-16T22:05:08.893Z,23.30
2022-08-16T22:07:39.187Z,23.30
2022-08-16T22:11:04.602Z,23.30
2022-08-16T22:12:58.840Z,23.30
2022-08-16T22:15:28.266Z,23.30
2022-08-16T22:17:59.208Z,23.30
2022-08-16T22:20:30.612Z,23.30
2022-08-16T22:23:12.179Z,23.30
2022-08-16T22:25:45.050Z,23.30
2022-08-16T22:28:15.562Z,23.30
2022-08-16T22:30:44.934Z,23.30
2022-08-16T22:33:16.740Z,23.30
2022-08-16T22:35:48.607Z,23.30
2022-08-16T22:38:53.620Z,23.20
2022-08-16T22:41:09.230Z,23.20
2022-08-16T22:43:38.235Z,23.20
2022-08-16T22:46:07.471Z,23.10
2022-08-16T22:48:39.473Z,23.00
2022-08-16T22:51:11.783Z,23.00
2022-08-16T22:53:42.158Z,22.90
2022-08-16T22:56:11.606Z,22.90
2022-08-16T22:58:40.630Z,22.80
2022-08-16T23:01:11.521Z,22.80
2022-08-16T23:03:41.182Z,22.70
2022-08-16T23:06:12.243Z,22.70
2022-08-16T23:08:43.531Z,22.60
2022-08-16T23:11:15.279Z,22.60
2022-08-16T23:13:52.651Z,22.50
2022-08-16T23:16:33.518Z,22.50
2022-08-16T23:19:03.686Z,22.50
2022-08-16T23:21:33.295Z,22.50
2022-08-16T23:24:03.922Z,22.50
2022-08-16T23:26:44.773Z,22.50
2022-08-16T23:29:23.230Z,22.40
2022-08-16T23:31:58.411Z,22.40
2022-08-16T23:34:29.763Z,22.40
2022-08-16T23:36:59.286Z,22.30
2022-08-16T23:39:47.943Z,22.20
2022-08-16T23:42:52.214Z,22.10
2022-08-16T23:45:07.869Z,22.10
2022-08-16T23:47:37.014Z,22.10
2022-08-16T23:50:06.721Z,22.00
2022-08-16T23:52:42.368Z,21.90
2022-08-16T23:55:26.026Z,21.90
2022-08-16T23:57:55.714Z,21.80
